createdAt,value
2017-02-28T00:00:11.624Z,983.77
2017-02-28T00:00:52.268Z,983.71
2017-02-28T00:01:32.826Z,983.67
2017-02-28T00:02:13.429Z,983.72
2017-02-28T00:02:54.122Z,983.66
2017-02-28T00:03:34.779Z,983.63
2017-02-28T00:04:15.339Z,983.59
2017-02-28T00:04:56.035Z,983.55
2017-02-28T00:05:36.629Z,983.61
2017-02-28T00:06:17.287Z,983.55
2017-02-28T00:06:57.939Z,983.54
2017-02-28T00:07:38.591Z,983.63
2017-02-28T00:08:19.250Z,983.69
2017-02-28T00:09:00.926Z,983.64
2017-02-28T00:09:41.575Z,983.61
2017-02-28T00:10:22.227Z,983.6
2017-02-28T00:11:03.905Z,983.6
2017-02-28T00:11:44.499Z,983.67
2017-02-28T00:12:25.196Z,983.55
2017-02-28T00:13:05.868Z,983.58
2017-02-28T00:13:46.522Z,983.58
2017-02-28T00:14:27.102Z,983.59
2017-02-28T00:15:07.775Z,983.52
2017-02-28T00:15:51.372Z,983.65
2017-02-28T00:16:42.650Z,983.49
2017-02-28T00:17:23.305Z,983.52
2017-02-28T00:18:03.955Z,983.61
2017-02-28T00:18:45.631Z,983.53
2017-02-28T00:19:26.288Z,983.51
2017-02-28T00:20:06.938Z,983.59
2017-02-28T00:20:48.617Z,983.54
2017-02-28T00:21:29.270Z,983.5
2017-02-28T00:22:11.971Z,983.46
2017-02-28T00:22:52.622Z,983.51
2017-02-28T00:23:33.276Z,983.49
2017-02-28T00:24:24.583Z,983.48
2017-02-28T00:25:20.086Z,983.43
2017-02-28T00:26:00.644Z,983.43
2017-02-28T00:26:43.336Z,983.46
2017-02-28T00:27:26.033Z,983.5
2017-02-28T00:28:07.712Z,983.5
2017-02-28T00:28:48.286Z,983.53
2017-02-28T00:29:28.978Z,983.58
2017-02-28T00:30:09.667Z,983.61
2017-02-28T00:30:55.136Z,983.6
2017-02-28T00:31:35.708Z,983.54
2017-02-28T00:32:17.434Z,983.55
2017-02-28T00:32:58.122Z,983.62
2017-02-28T00:33:38.770Z,983.67
2017-02-28T00:34:19.331Z,983.52
2017-02-28T00:35:00.998Z,983.37
2017-02-28T00:35:41.648Z,983.3
2017-02-28T00:36:22.303Z,983.27
2017-02-28T00:37:03.978Z,983.36
2017-02-28T00:37:59.582Z,983.32
2017-02-28T00:38:41.266Z,983.22
2017-02-28T00:39:28.569Z,983.19
2017-02-28T00:40:14.138Z,983.32
2017-02-28T00:40:55.817Z,983.37
2017-02-28T00:41:36.394Z,983.31
2017-02-28T00:42:17.015Z,983.38
2017-02-28T00:45:32.992Z,983.3
2017-02-28T00:46:19.201Z,983.3
2017-02-28T00:46:59.766Z,983.37
2017-02-28T00:47:47.130Z,983.3
2017-02-28T00:48:28.846Z,983.35
2017-02-28T00:49:16.282Z,983.28
2017-02-28T00:49:56.830Z,983.32
2017-02-28T00:50:37.613Z,983.27
2017-02-28T00:51:23.938Z,983.28
2017-02-28T00:52:04.592Z,983.31
2017-02-28T00:52:45.164Z,983.28
2017-02-28T00:53:26.821Z,983.34
2017-02-28T00:54:08.515Z,983.31
2017-02-28T00:54:49.090Z,983.34
2017-02-28T00:55:29.818Z,983.35
2017-02-28T01:28:46.715Z,983.39
2017-02-28T01:29:27.284Z,983.42
2017-02-28T01:40:04.148Z,983.38
2017-02-28T01:40:56.335Z,983.29
2017-02-28T01:41:36.890Z,983.31
2017-02-28T01:42:32.059Z,983.23
2017-02-28T01:43:27.358Z,983.31
2017-02-28T01:44:07.934Z,983.31
2017-02-28T01:44:55.175Z,983.3
2017-02-28T01:45:37.840Z,983.32
2017-02-28T01:46:29.323Z,983.29
2017-02-28T01:47:09.902Z,983.29
2017-02-28T01:48:02.638Z,983.25
2017-02-28T02:28:52.134Z,983.52
2017-02-28T02:29:32.704Z,983.49
2017-02-28T02:30:13.445Z,983.64
2017-02-28T02:30:54.099Z,983.67
2017-02-28T02:31:34.697Z,983.69
2017-02-28T02:32:15.402Z,983.75
2017-02-28T02:32:56.056Z,983.7
2017-02-28T02:33:39.294Z,983.62
2017-02-28T02:34:26.922Z,983.6
2017-02-28T02:35:07.651Z,983.63
2017-02-28T02:35:48.288Z,983.66
2017-02-28T02:36:28.946Z,983.6
2017-02-28T02:37:09.697Z,983.68
2017-02-28T02:37:50.350Z,983.62
2017-02-28T02:38:32.031Z,983.61
2017-02-28T02:39:12.682Z,983.55
2017-02-28T02:39:53.335Z,983.52
2017-02-28T02:40:33.983Z,983.53
2017-02-28T02:41:14.640Z,983.49
2017-02-28T02:41:55.189Z,983.45
2017-02-28T02:42:35.908Z,983.45
2017-02-28T02:43:16.597Z,983.38
2017-02-28T02:43:57.249Z,983.36
2017-02-28T02:44:37.817Z,983.31
2017-02-28T02:45:18.509Z,983.33
2017-02-28T02:45:59.227Z,983.32
2017-02-28T02:46:39.863Z,983.31
2017-02-28T02:47:20.513Z,983.31
2017-02-28T02:48:01.163Z,983.29
2017-02-28T02:48:41.917Z,983.32
2017-02-28T02:49:22.678Z,983.39
2017-02-28T02:50:03.326Z,983.35
2017-02-28T02:50:44.082Z,983.39
2017-02-28T02:51:24.736Z,983.38
2017-02-28T02:52:05.301Z,983.45
2017-02-28T02:52:45.999Z,983.44
2017-02-28T02:53:26.699Z,983.47
2017-02-28T02:54:07.349Z,983.45
2017-02-28T02:54:47.914Z,983.45
2017-02-28T02:55:28.607Z,983.47
2017-02-28T02:56:09.318Z,983.5
2017-02-28T02:56:49.966Z,983.51
2017-02-28T02:57:31.641Z,983.44
2017-02-28T02:58:12.292Z,983.47
2017-02-28T02:58:52.947Z,983.5
2017-02-28T02:59:33.596Z,983.41
2017-02-28T03:00:14.251Z,983.44
2017-02-28T03:00:54.912Z,983.39
2017-02-28T03:01:35.553Z,983.4
2017-02-28T03:02:16.206Z,983.41
2017-02-28T03:02:56.966Z,983.45
2017-02-28T03:03:37.627Z,983.5
2017-02-28T03:04:18.370Z,983.51
2017-02-28T03:04:59.027Z,983.5
2017-02-28T03:05:39.617Z,983.49
2017-02-28T03:06:20.336Z,983.49
2017-02-28T03:07:00.886Z,983.52
2017-02-28T03:07:41.589Z,983.48
2017-02-28T03:08:22.292Z,983.51
2017-02-28T03:09:02.946Z,983.51
2017-02-28T03:09:43.504Z,983.48
2017-02-28T03:10:25.224Z,983.46
2017-02-28T03:11:05.918Z,983.56
2017-02-28T03:11:46.583Z,983.46
2017-02-28T03:12:27.333Z,983.5
2017-02-28T03:13:07.988Z,983.54
2017-02-28T03:13:48.642Z,983.51
2017-02-28T03:14:30.327Z,983.47
2017-02-28T03:15:11.072Z,983.54
2017-02-28T03:15:51.855Z,983.58
2017-02-28T03:16:32.579Z,983.56
2017-02-28T03:17:13.238Z,983.54
2017-02-28T03:17:53.884Z,983.6
2017-02-28T03:18:34.544Z,983.61
2017-02-28T03:19:15.194Z,983.57
2017-02-28T03:19:55.847Z,983.58
2017-02-28T03:20:36.499Z,983.57
2017-02-28T03:21:17.152Z,983.62
2017-02-28T03:21:57.716Z,983.6
2017-02-28T03:22:38.407Z,983.58
2017-02-28T03:23:19.132Z,983.64
2017-02-28T03:23:59.770Z,983.64
2017-02-28T03:24:40.335Z,983.62
2017-02-28T03:25:21.020Z,983.64
2017-02-28T03:26:01.732Z,983.71
2017-02-28T03:26:42.477Z,983.65
2017-02-28T03:27:24.156Z,983.62
2017-02-28T03:28:04.812Z,983.67
2017-02-28T03:28:45.467Z,983.63
2017-02-28T03:29:27.139Z,983.64
2017-02-28T03:30:07.793Z,983.7
2017-02-28T03:30:48.547Z,983.71
2017-02-28T03:31:29.199Z,983.76
2017-02-28T03:32:09.765Z,983.62
2017-02-28T03:32:50.507Z,983.62
2017-02-28T03:33:31.162Z,983.6
2017-02-28T03:34:11.736Z,983.58
2017-02-28T03:34:52.466Z,983.59
2017-02-28T03:35:34.143Z,983.58
2017-02-28T03:36:14.736Z,983.57
2017-02-28T03:36:55.447Z,983.58
2017-02-28T03:37:36.423Z,983.56
2017-02-28T03:38:16.985Z,983.52
2017-02-28T03:38:57.722Z,983.56
2017-02-28T03:39:38.360Z,983.56
2017-02-28T03:40:19.123Z,983.58
2017-02-28T03:40:59.701Z,983.56
2017-02-28T03:41:42.377Z,983.53
2017-02-28T03:42:25.072Z,983.53
2017-02-28T03:43:05.727Z,983.54
2017-02-28T03:43:46.481Z,983.46
2017-02-28T03:44:27.138Z,983.52
2017-02-28T03:45:08.816Z,983.51
2017-02-28T03:45:49.565Z,983.43
2017-02-28T03:46:30.223Z,983.47
2017-02-28T03:47:10.877Z,983.52
2017-02-28T03:47:51.526Z,983.36
2017-02-28T03:48:32.286Z,983.47
2017-02-28T03:49:13.040Z,983.4
2017-02-28T03:49:53.794Z,983.47
2017-02-28T03:50:34.545Z,983.46
2017-02-28T03:51:15.204Z,983.5
2017-02-28T03:51:55.852Z,983.51
2017-02-28T03:52:36.535Z,983.52
2017-02-28T03:53:17.263Z,983.52
2017-02-28T03:53:58.942Z,983.45
2017-02-28T03:54:39.595Z,983.48
2017-02-28T03:55:21.272Z,983.45
2017-02-28T03:56:02.022Z,983.43
2017-02-28T03:56:42.779Z,983.41
2017-02-28T03:57:24.455Z,983.44
2017-02-28T03:58:05.120Z,983.4
2017-02-28T03:58:45.864Z,983.47
2017-02-28T03:59:26.516Z,983.46
2017-02-28T04:00:07.273Z,983.46
2017-02-28T04:00:48.027Z,983.49
2017-02-28T04:01:28.680Z,983.52
2017-02-28T04:02:09.235Z,983.5
2017-02-28T04:02:49.947Z,983.51
2017-02-28T04:03:30.643Z,983.5
2017-02-28T04:04:11.297Z,983.52
2017-02-28T04:04:51.843Z,983.57
2017-02-28T04:05:32.560Z,983.5
2017-02-28T04:06:14.273Z,983.46
2017-02-28T04:06:54.931Z,983.51
2017-02-28T04:07:35.582Z,983.46
2017-02-28T04:08:16.337Z,983.48
2017-02-28T04:08:57.092Z,983.55
2017-02-28T04:09:37.849Z,983.49
2017-02-28T04:10:18.504Z,983.48
2017-02-28T04:10:59.258Z,983.45
2017-02-28T04:11:39.824Z,983.48
2017-02-28T04:12:20.591Z,983.5
2017-02-28T04:13:01.320Z,983.47
2017-02-28T04:13:41.881Z,983.47
2017-02-28T04:14:23.646Z,983.45
2017-02-28T04:15:04.303Z,983.44
2017-02-28T04:15:44.877Z,983.41
2017-02-28T04:16:25.608Z,983.4
2017-02-28T04:17:08.309Z,983.48
2017-02-28T04:17:48.887Z,983.48
2017-02-28T04:18:30.703Z,983.47
2017-02-28T04:19:11.495Z,983.44
2017-02-28T04:19:52.074Z,983.44
2017-02-28T04:20:32.810Z,983.44
2017-02-28T04:21:13.557Z,983.48
2017-02-28T04:21:54.137Z,983.47
2017-02-28T04:22:35.785Z,983.49
2017-02-28T04:23:16.467Z,983.51
2017-02-28T04:23:57.219Z,983.51
2017-02-28T04:24:37.902Z,983.51
2017-02-28T04:25:18.598Z,983.51
2017-02-28T04:25:59.357Z,983.61
2017-02-28T04:26:39.908Z,983.51
2017-02-28T04:27:20.606Z,983.55
2017-02-28T04:28:01.329Z,983.54
2017-02-28T04:28:43.095Z,983.47
2017-02-28T04:29:23.658Z,983.48
2017-02-28T04:30:04.352Z,983.51
2017-02-28T04:30:45.053Z,983.55
2017-02-28T04:31:25.707Z,983.53
2017-02-28T04:32:06.362Z,983.56
2017-02-28T04:32:49.161Z,983.51
2017-02-28T04:33:29.814Z,983.49
2017-02-28T04:34:10.571Z,983.48
2017-02-28T04:34:53.272Z,983.56
2017-02-28T04:35:34.028Z,983.51
2017-02-28T04:36:14.784Z,983.54
2017-02-28T04:36:55.346Z,983.54
2017-02-28T04:37:37.085Z,983.56
2017-02-28T04:38:17.765Z,983.5
2017-02-28T04:38:59.443Z,983.53
2017-02-28T04:39:40.007Z,983.62
2017-02-28T04:40:21.793Z,983.58
2017-02-28T04:41:02.684Z,983.65
2017-02-28T04:41:43.282Z,983.64
2017-02-28T04:42:24.038Z,983.67
2017-02-28T04:43:04.795Z,983.69
2017-02-28T04:43:45.549Z,983.61
2017-02-28T04:44:26.204Z,983.6
2017-02-28T04:45:06.957Z,983.65
2017-02-28T04:45:47.622Z,983.63
2017-02-28T04:46:32.871Z,983.61
2017-02-28T04:47:13.436Z,983.65
2017-02-28T04:47:55.160Z,983.64
2017-02-28T04:48:35.854Z,983.64
2017-02-28T04:49:17.641Z,983.64
2017-02-28T04:49:58.214Z,983.6
2017-02-28T04:50:38.890Z,983.62
2017-02-28T04:51:19.600Z,983.65
2017-02-28T04:52:00.352Z,983.64
2017-02-28T04:52:41.111Z,983.68
2017-02-28T04:53:23.812Z,983.58
2017-02-28T04:54:04.460Z,983.63
2017-02-28T04:54:45.220Z,983.76
2017-02-28T04:55:25.867Z,983.66
2017-02-28T04:56:06.630Z,983.71
2017-02-28T04:56:47.197Z,983.73
2017-02-28T04:57:27.941Z,983.69
2017-02-28T04:58:08.689Z,983.66
2017-02-28T04:58:49.260Z,983.64
2017-02-28T04:59:29.982Z,983.69
2017-02-28T05:00:10.647Z,983.62
2017-02-28T05:00:51.215Z,983.61
2017-02-28T05:01:31.858Z,983.66
2017-02-28T05:02:12.424Z,983.72
2017-02-28T05:02:53.156Z,983.66
2017-02-28T05:03:33.912Z,983.71
2017-02-28T05:04:14.669Z,983.63
2017-02-28T05:04:55.424Z,983.65
2017-02-28T05:05:37.099Z,983.75
2017-02-28T05:06:18.777Z,983.65
2017-02-28T05:06:59.535Z,983.66
2017-02-28T05:07:40.285Z,983.69
2017-02-28T05:08:21.964Z,983.63
2017-02-28T05:09:02.736Z,983.67
2017-02-28T05:09:43.369Z,983.69
2017-02-28T05:10:24.025Z,983.62
2017-02-28T05:11:05.703Z,983.65
2017-02-28T05:11:46.456Z,983.67
2017-02-28T05:12:27.213Z,983.65
2017-02-28T05:13:09.003Z,983.66
2017-02-28T05:13:49.763Z,983.62
2017-02-28T05:14:30.505Z,983.66
2017-02-28T05:15:12.202Z,983.59
2017-02-28T05:15:52.934Z,983.61
2017-02-28T05:16:33.694Z,983.64
2017-02-28T05:17:14.446Z,983.7
2017-02-28T05:17:55.200Z,983.62
2017-02-28T05:18:35.957Z,983.61
2017-02-28T05:19:17.733Z,983.68
2017-02-28T05:19:58.492Z,983.61
2017-02-28T05:20:40.272Z,983.66
2017-02-28T05:21:21.946Z,983.68
2017-02-28T05:22:02.706Z,983.63
2017-02-28T05:22:43.459Z,983.68
2017-02-28T05:23:29.949Z,983.68
2017-02-28T05:24:10.706Z,983.73
2017-02-28T05:24:51.457Z,983.71
2017-02-28T05:25:32.213Z,983.75
2017-02-28T05:26:12.981Z,983.76
2017-02-28T05:26:53.725Z,983.79
2017-02-28T05:27:34.481Z,983.83
2017-02-28T05:28:16.175Z,983.79
2017-02-28T05:28:56.912Z,983.81
2017-02-28T05:29:37.671Z,983.81
2017-02-28T05:30:20.266Z,983.83
2017-02-28T05:31:01.018Z,983.82
2017-02-28T05:31:41.774Z,983.81
2017-02-28T05:32:22.358Z,983.78
2017-02-28T05:33:03.073Z,983.82
2017-02-28T05:33:48.448Z,983.81
2017-02-28T05:34:29.090Z,983.82
2017-02-28T05:35:10.765Z,983.84
2017-02-28T05:35:52.472Z,983.75
2017-02-28T05:36:33.024Z,983.81
2017-02-28T05:37:13.759Z,983.75
2017-02-28T05:37:55.549Z,983.74
2017-02-28T05:38:36.101Z,983.77
2017-02-28T05:39:21.818Z,983.8
2017-02-28T05:40:02.519Z,983.76
2017-02-28T05:40:43.270Z,983.82
2017-02-28T05:41:23.864Z,983.79
2017-02-28T05:42:04.648Z,983.8
2017-02-28T05:42:46.366Z,983.76
2017-02-28T05:43:27.132Z,983.83
2017-02-28T05:44:07.679Z,983.81
2017-02-28T05:44:48.406Z,983.83
2017-02-28T05:45:28.977Z,983.86
2017-02-28T05:46:14.438Z,983.86
2017-02-28T05:46:54.995Z,983.89
2017-02-28T05:47:35.717Z,983.82
2017-02-28T05:48:17.480Z,983.83
2017-02-28T05:49:00.193Z,983.86
2017-02-28T05:49:40.948Z,983.88
2017-02-28T05:50:27.343Z,983.88
2017-02-28T05:51:07.989Z,983.89
2017-02-28T05:51:48.731Z,983.87
2017-02-28T05:52:29.537Z,983.94
2017-02-28T05:53:10.298Z,983.93
2017-02-28T05:53:50.842Z,983.93
2017-02-28T05:54:31.542Z,983.99
2017-02-28T05:55:12.241Z,983.96
2017-02-28T05:55:52.995Z,983.91
2017-02-28T05:56:33.561Z,983.94
2017-02-28T05:57:15.432Z,983.94
2017-02-28T05:57:56.190Z,983.96
2017-02-28T05:58:36.948Z,983.93
2017-02-28T05:59:19.845Z,983.9
2017-02-28T06:00:06.443Z,983.97
2017-02-28T06:00:47.192Z,983.94
2017-02-28T06:01:32.461Z,983.87
2017-02-28T06:02:13.015Z,983.91
2017-02-28T06:02:53.774Z,984.03
2017-02-28T06:03:35.545Z,984.01
2017-02-28T06:04:16.115Z,983.91
2017-02-28T06:04:57.905Z,983.94
2017-02-28T06:05:39.656Z,984
2017-02-28T06:06:20.228Z,983.9
2017-02-28T06:07:01.982Z,984
2017-02-28T06:07:42.739Z,984.17
2017-02-28T06:08:23.494Z,983.96
2017-02-28T06:09:04.282Z,983.97
2017-02-28T06:09:46.028Z,983.98
2017-02-28T06:10:26.783Z,983.97
2017-02-28T06:11:07.524Z,984
2017-02-28T06:11:49.369Z,983.99
2017-02-28T06:12:30.067Z,983.98
2017-02-28T06:13:10.842Z,983.96
2017-02-28T06:13:52.611Z,983.94
2017-02-28T06:14:37.976Z,983.99
2017-02-28T06:15:18.631Z,983.99
2017-02-28T06:15:59.379Z,983.91
2017-02-28T06:16:42.080Z,983.91
2017-02-28T06:17:22.944Z,983.88
2017-02-28T06:18:03.693Z,983.94
2017-02-28T06:18:44.442Z,983.97
2017-02-28T06:19:25.237Z,983.97
2017-02-28T06:20:05.959Z,983.97
2017-02-28T06:20:47.126Z,983.92
2017-02-28T06:21:27.908Z,983.95
2017-02-28T06:22:08.439Z,983.95
2017-02-28T06:22:49.158Z,983.91
2017-02-28T06:23:29.932Z,983.96
2017-02-28T06:24:10.697Z,983.97
2017-02-28T06:24:51.271Z,983.98
2017-02-28T06:25:31.951Z,983.98
2017-02-28T06:26:13.680Z,984
2017-02-28T06:26:56.563Z,983.96
2017-02-28T06:27:37.612Z,984.05
2017-02-28T06:28:23.221Z,984.02
2017-02-28T06:29:05.915Z,984
2017-02-28T06:29:46.490Z,984.07
2017-02-28T06:30:27.208Z,984.07
2017-02-28T06:31:07.976Z,984.03
2017-02-28T06:31:48.551Z,984.08
2017-02-28T06:32:29.285Z,984.02
2017-02-28T06:33:10.040Z,984.02
2017-02-28T06:33:50.589Z,984.04
2017-02-28T06:34:36.316Z,984.01
2017-02-28T06:35:17.121Z,984.04
2017-02-28T06:35:58.895Z,984.05
2017-02-28T06:36:39.459Z,984.07
2017-02-28T06:37:20.301Z,984.03
2017-02-28T06:38:01.058Z,984.11
2017-02-28T06:38:42.841Z,984.07
2017-02-28T06:39:24.618Z,984.03
2017-02-28T06:40:05.371Z,984.15
2017-02-28T06:40:47.152Z,984.18
2017-02-28T06:41:27.909Z,984.06
2017-02-28T06:42:08.485Z,984.12
2017-02-28T06:42:49.264Z,984.18
2017-02-28T06:43:29.954Z,984.13
2017-02-28T06:44:10.727Z,984.05
2017-02-28T06:44:51.289Z,984.06
2017-02-28T06:45:31.980Z,984.1
2017-02-28T06:46:12.663Z,984.12
2017-02-28T06:46:55.384Z,984.19
2017-02-28T06:47:35.978Z,984.11
2017-02-28T06:48:16.759Z,984.16
2017-02-28T06:48:57.343Z,984.19
2017-02-28T06:49:39.018Z,984.29
2017-02-28T06:50:19.575Z,984.13
2017-02-28T06:51:00.299Z,984.18
2017-02-28T06:51:42.000Z,984.2
2017-02-28T06:52:24.609Z,984.14
2017-02-28T06:53:05.178Z,984.16
2017-02-28T06:53:45.758Z,984.15
2017-02-28T06:54:26.353Z,984.2
2017-02-28T06:55:08.958Z,984.12
2017-02-28T06:55:49.577Z,984.14
2017-02-28T06:56:31.237Z,984.11
2017-02-28T06:57:11.830Z,984.12
2017-02-28T06:57:54.433Z,984.09
2017-02-28T06:58:34.986Z,984.12
2017-02-28T06:59:15.634Z,984.21
2017-02-28T07:00:08.882Z,984.15
2017-02-28T07:00:49.446Z,984.14
2017-02-28T07:01:30.083Z,984.21
2017-02-28T07:02:10.741Z,984.15
2017-02-28T07:02:51.319Z,984.21
2017-02-28T07:03:37.879Z,984.15
2017-02-28T07:04:34.422Z,984.23
2017-02-28T07:05:16.090Z,984.19
2017-02-28T07:05:56.736Z,984.15
2017-02-28T07:06:47.834Z,984.23
2017-02-28T07:07:28.490Z,984.27
2017-02-28T07:08:10.170Z,984.24
2017-02-28T07:08:50.821Z,984.33
2017-02-28T07:09:31.483Z,984.19
2017-02-28T07:10:12.123Z,984.56
2017-02-28T07:10:53.799Z,984.22
2017-02-28T07:11:35.541Z,984.2
2017-02-28T07:12:16.119Z,984.38
2017-02-28T07:12:56.722Z,984.27
2017-02-28T07:13:37.394Z,984.37
2017-02-28T07:14:19.130Z,984.39
2017-02-28T07:14:59.870Z,984.42
2017-02-28T07:15:40.627Z,984.31
2017-02-28T07:16:21.380Z,984.33
2017-02-28T07:17:01.951Z,984.29
2017-02-28T07:17:48.122Z,984.31
2017-02-28T07:18:28.769Z,984.32
2017-02-28T07:19:09.728Z,984.4
2017-02-28T07:19:50.297Z,984.35
2017-02-28T07:20:30.882Z,984.33
2017-02-28T07:21:11.475Z,984.36
2017-02-28T07:21:58.898Z,984.42
2017-02-28T07:22:39.496Z,984.34
2017-02-28T07:23:20.152Z,984.4
2017-02-28T07:24:01.777Z,984.39
2017-02-28T07:24:44.475Z,984.39
2017-02-28T07:25:25.059Z,984.46
2017-02-28T07:26:06.664Z,984.47
2017-02-28T07:26:47.348Z,984.44
2017-02-28T07:27:34.867Z,984.42
2017-02-28T07:28:15.443Z,984.47
2017-02-28T07:28:57.106Z,984.51
2017-02-28T07:29:39.689Z,984.44
2017-02-28T07:30:20.261Z,984.45
2017-02-28T07:31:00.892Z,984.5
2017-02-28T07:31:46.366Z,984.49
2017-02-28T07:32:26.943Z,984.46
2017-02-28T07:33:07.579Z,984.4
2017-02-28T07:33:52.831Z,984.36
2017-02-28T07:34:33.389Z,984.39
2017-02-28T07:35:19.715Z,984.51
2017-02-28T07:36:00.313Z,984.36
2017-02-28T07:36:40.972Z,984.38
2017-02-28T07:37:21.523Z,984.44
2017-02-28T07:38:08.699Z,984.35
2017-02-28T07:39:06.234Z,984.36
2017-02-28T07:39:46.881Z,984.45
2017-02-28T07:40:27.555Z,984.38
2017-02-28T07:41:08.219Z,984.3
2017-02-28T07:41:49.878Z,984.24
2017-02-28T07:42:41.288Z,984.43
2017-02-28T07:43:21.979Z,984.41
2017-02-28T07:44:02.581Z,984.46
2017-02-28T07:44:43.227Z,984.39
2017-02-28T07:45:23.899Z,984.46
2017-02-28T07:46:04.534Z,984.5
2017-02-28T07:46:50.719Z,984.36
2017-02-28T07:47:31.385Z,984.35
2017-02-28T07:48:24.874Z,984.46
2017-02-28T07:49:05.451Z,984.42
2017-02-28T07:49:46.070Z,984.41
2017-02-28T07:50:27.649Z,984.35
2017-02-28T07:51:08.206Z,984.42
2017-02-28T07:51:48.839Z,984.35
2017-02-28T07:52:30.434Z,984.37
2017-02-28T07:53:11.080Z,984.44
2017-02-28T07:53:51.735Z,984.38
2017-02-28T07:54:32.387Z,984.41
2017-02-28T07:55:13.039Z,984.44
2017-02-28T07:55:53.692Z,984.4
2017-02-28T07:56:34.346Z,984.4
2017-02-28T07:57:14.892Z,984.39
2017-02-28T07:57:55.577Z,984.45
2017-02-28T07:58:38.245Z,984.43
2017-02-28T07:59:18.804Z,984.46
2017-02-28T08:00:01.551Z,984.45
2017-02-28T08:00:44.202Z,984.54
2017-02-28T08:01:24.754Z,984.5
2017-02-28T08:02:07.344Z,984.43
2017-02-28T08:02:47.999Z,984.47
2017-02-28T08:03:33.365Z,984.45
2017-02-28T08:04:15.966Z,984.41
2017-02-28T08:04:57.639Z,984.46
2017-02-28T08:05:54.898Z,984.46
2017-02-28T08:06:46.388Z,984.52
2017-02-28T08:07:27.040Z,984.47
2017-02-28T08:08:08.734Z,984.55
2017-02-28T08:08:49.376Z,984.61
2017-02-28T08:09:30.022Z,984.65
2017-02-28T08:10:10.675Z,984.64
2017-02-28T08:10:51.329Z,984.57
2017-02-28T08:11:33.013Z,984.64
2017-02-28T08:12:13.666Z,984.64
2017-02-28T08:12:54.315Z,984.63
2017-02-28T08:13:34.992Z,984.6
2017-02-28T08:14:15.621Z,984.57
2017-02-28T08:15:00.882Z,984.58
2017-02-28T08:15:41.442Z,984.56
2017-02-28T08:16:24.035Z,984.54
2017-02-28T08:17:09.393Z,984.59
2017-02-28T08:17:49.954Z,984.67
2017-02-28T08:18:31.623Z,984.54
2017-02-28T08:19:14.237Z,984.57
2017-02-28T08:19:55.896Z,984.68
2017-02-28T08:20:36.550Z,984.54
2017-02-28T08:21:23.858Z,984.59
2017-02-28T08:22:06.457Z,984.57
2017-02-28T08:22:47.008Z,984.61
2017-02-28T08:23:27.614Z,984.63
2017-02-28T08:24:08.205Z,984.68
2017-02-28T08:24:48.773Z,984.66
2017-02-28T08:25:29.412Z,984.57
2017-02-28T08:26:10.003Z,984.57
2017-02-28T08:26:50.577Z,984.6
2017-02-28T08:27:32.194Z,984.63
2017-02-28T08:28:12.845Z,984.68
2017-02-28T08:28:58.313Z,984.57
2017-02-28T08:29:38.967Z,984.58
2017-02-28T08:30:19.621Z,984.53
2017-02-28T08:31:01.293Z,984.61
2017-02-28T08:31:41.945Z,984.77
2017-02-28T08:32:22.505Z,984.67
2017-02-28T08:33:03.087Z,984.58
2017-02-28T08:33:43.685Z,984.68
2017-02-28T08:34:24.311Z,984.63
2017-02-28T08:35:04.882Z,984.65
2017-02-28T08:35:45.559Z,984.66
2017-02-28T08:36:26.168Z,984.65
2017-02-28T08:37:06.815Z,984.67
2017-02-28T08:37:47.381Z,984.62
2017-02-28T08:38:27.978Z,984.64
2017-02-28T08:39:08.679Z,984.6
2017-02-28T08:39:49.326Z,984.65
2017-02-28T08:40:29.893Z,984.59
2017-02-28T08:41:10.485Z,984.58
2017-02-28T08:41:51.080Z,984.65
2017-02-28T08:42:31.734Z,984.68
2017-02-28T08:43:12.385Z,984.72
2017-02-28T08:43:53.038Z,984.61
2017-02-28T08:44:33.699Z,984.64
2017-02-28T08:45:14.450Z,984.68
2017-02-28T08:45:55.114Z,984.69
2017-02-28T08:46:35.760Z,984.67
2017-02-28T08:47:16.330Z,984.64
2017-02-28T08:47:56.935Z,984.68
2017-02-28T08:48:38.540Z,984.59
2017-02-28T08:49:19.187Z,984.6
2017-02-28T08:49:59.789Z,984.58
2017-02-28T08:50:40.435Z,984.62
2017-02-28T08:51:21.145Z,984.59
2017-02-28T08:52:01.799Z,984.67
2017-02-28T08:52:42.374Z,984.69
2017-02-28T08:53:23.073Z,984.68
2017-02-28T08:54:03.706Z,984.64
2017-02-28T08:54:44.353Z,984.62
2017-02-28T08:55:24.963Z,984.59
2017-02-28T08:56:05.610Z,984.67
2017-02-28T08:56:46.266Z,984.69
2017-02-28T08:57:26.938Z,984.64
2017-02-28T08:58:07.683Z,984.71
2017-02-28T08:58:48.434Z,984.64
2017-02-28T08:59:29.187Z,984.73
2017-02-28T09:00:09.939Z,984.69
2017-02-28T09:00:50.696Z,984.65
2017-02-28T09:01:31.451Z,984.67
2017-02-28T09:02:12.104Z,984.59
2017-02-28T09:02:53.684Z,984.59
2017-02-28T09:03:34.336Z,984.65
2017-02-28T09:04:14.982Z,984.57
2017-02-28T09:04:55.636Z,984.58
2017-02-28T09:05:38.243Z,984.68
2017-02-28T09:06:18.901Z,984.62
2017-02-28T09:06:59.543Z,984.57
2017-02-28T09:07:40.096Z,984.65
2017-02-28T09:08:22.672Z,984.62
2017-02-28T09:09:04.265Z,984.58
2017-02-28T09:09:45.489Z,984.71
2017-02-28T09:10:26.092Z,984.68
2017-02-28T09:11:06.743Z,984.6
2017-02-28T09:11:47.301Z,984.68
2017-02-28T09:12:27.940Z,984.68
2017-02-28T09:13:19.346Z,984.62
2017-02-28T09:13:59.925Z,984.62
2017-02-28T09:14:42.712Z,984.76
2017-02-28T09:15:25.407Z,984.65
2017-02-28T09:16:05.967Z,984.68
2017-02-28T09:16:47.644Z,984.72
2017-02-28T09:17:28.295Z,984.72
2017-02-28T09:18:08.839Z,984.63
2017-02-28T09:18:49.453Z,984.65
2017-02-28T09:19:30.037Z,984.63
2017-02-28T09:20:10.693Z,984.63
2017-02-28T09:20:51.256Z,984.69
2017-02-28T09:21:31.840Z,984.66
2017-02-28T09:22:12.545Z,984.69
2017-02-28T09:22:53.203Z,984.73
2017-02-28T09:23:33.763Z,984.71
2017-02-28T09:24:19.293Z,984.67
2017-02-28T09:25:00.041Z,984.63
2017-02-28T09:25:40.680Z,984.61
2017-02-28T09:26:21.557Z,984.62
2017-02-28T09:27:04.343Z,984.63
2017-02-28T09:27:44.922Z,984.65
2017-02-28T09:28:26.716Z,984.63
2017-02-28T09:29:14.299Z,984.65
2017-02-28T09:29:54.979Z,984.61
2017-02-28T09:30:35.614Z,984.59
2017-02-28T09:31:16.357Z,984.57
2017-02-28T09:31:56.965Z,984.66
2017-02-28T09:32:37.641Z,984.7
2017-02-28T09:33:18.309Z,984.57
2017-02-28T09:33:58.970Z,984.61
2017-02-28T09:34:39.584Z,984.6
2017-02-28T09:35:21.252Z,984.51
2017-02-28T09:36:01.881Z,984.5
2017-02-28T09:36:44.501Z,984.51
2017-02-28T09:37:25.138Z,984.59
2017-02-28T09:38:05.730Z,984.55
2017-02-28T09:38:46.297Z,984.55
2017-02-28T09:39:26.923Z,984.53
2017-02-28T09:40:08.547Z,984.53
2017-02-28T09:40:49.098Z,984.52
2017-02-28T09:41:29.686Z,984.59
2017-02-28T09:42:10.334Z,984.49
2017-02-28T09:42:51.082Z,984.55
2017-02-28T09:43:31.838Z,984.54
2017-02-28T09:44:12.424Z,984.5
2017-02-28T09:44:52.978Z,984.55
2017-02-28T09:45:33.547Z,984.49
2017-02-28T09:46:14.150Z,984.43
2017-02-28T09:46:54.791Z,984.49
2017-02-28T09:47:35.352Z,984.44
2017-02-28T09:48:16.030Z,984.51
2017-02-28T09:48:56.656Z,984.47
2017-02-28T09:49:37.307Z,984.48
2017-02-28T09:50:17.960Z,984.46
2017-02-28T09:50:58.603Z,984.47
2017-02-28T09:51:39.269Z,984.49
2017-02-28T09:52:20.011Z,984.44
2017-02-28T09:53:00.674Z,984.47
2017-02-28T09:53:41.430Z,984.47
2017-02-28T09:54:22.180Z,984.52
2017-02-28T09:55:02.945Z,984.52
2017-02-28T09:55:43.703Z,984.55
2017-02-28T09:56:24.447Z,984.48
2017-02-28T09:57:05.100Z,984.46
2017-02-28T09:57:45.698Z,984.52
2017-02-28T09:58:26.368Z,984.5
2017-02-28T09:59:06.956Z,984.57
2017-02-28T09:59:47.519Z,984.48
2017-02-28T10:00:28.155Z,984.51
2017-02-28T10:01:09.734Z,984.49
2017-02-28T10:01:50.300Z,984.52
2017-02-28T10:02:30.944Z,984.51
2017-02-28T10:03:11.596Z,984.51
2017-02-28T10:03:52.133Z,984.58